sensor_id;sensor_type;location;lat;lon;timestamp;pressure;altitude;pressure_sealevel;temperature;humidity
37832;BME280;23671;38.090;-122.570;2023-08-20T00:00:59;100693.06;;;30.62;45.15
37832;BME280;23671;38.090;-122.570;2023-08-20T00:03:29;100682.16;;;30.62;44.94
37832;BME280;23671;38.090;-122.570;2023-08-20T00:05:57;100678.59;;;30.62;44.92
37832;BME280;23671;38.090;-122.570;2023-08-20T00:08:24;100692.72;;;30.59;44.79
37832;BME280;23671;38.090;-122.570;2023-08-20T00:10:51;100689.50;;;30.62;44.98
37832;BME280;23671;38.090;-122.570;2023-08-20T00:13:18;100688.59;;;30.56;44.74
37832;BME280;23671;38.090;-122.570;2023-08-20T00:15:45;100687.25;;;30.59;44.82
37832;BME280;23671;38.090;-122.570;2023-08-20T00:18:12;100689.19;;;30.58;44.89
37832;BME280;23671;38.090;-122.570;2023-08-20T00:20:40;100690.50;;;30.56;44.83
37832;BME280;23671;38.090;-122.570;2023-08-20T00:23:07;100691.56;;;30.55;44.73
37832;BME280;23671;38.090;-122.570;2023-08-20T00:25:35;100686.38;;;30.53;44.69
37832;BME280;23671;38.090;-122.570;2023-08-20T00:28:02;100692.41;;;30.55;44.47
37832;BME280;23671;38.090;-122.570;2023-08-20T00:30:29;100683.06;;;30.51;44.76
37832;BME280;23671;38.090;-122.570;2023-08-20T00:32:56;100688.53;;;30.51;44.50
37832;BME280;23671;38.090;-122.570;2023-08-20T00:35:23;100683.59;;;30.48;44.32
37832;BME280;23671;38.090;-122.570;2023-08-20T00:37:50;100683.59;;;30.48;44.26
37832;BME280;23671;38.090;-122.570;2023-08-20T00:40:18;100690.09;;;30.47;44.36
37832;BME280;23671;38.090;-122.570;2023-08-20T00:42:45;100683.50;;;30.43;43.86
37832;BME280;23671;38.090;-122.570;2023-08-20T00:45:12;100680.78;;;30.43;44.14
37832;BME280;23671;38.090;-122.570;2023-08-20T00:47:39;100682.44;;;30.44;43.60
37832;BME280;23671;38.090;-122.570;2023-08-20T00:50:07;100678.81;;;30.38;43.83
37832;BME280;23671;38.090;-122.570;2023-08-20T00:52:35;100673.63;;;30.37;43.80
37832;BME280;23671;38.090;-122.570;2023-08-20T00:55:09;100674.69;;;30.36;43.71
37832;BME280;23671;38.090;-122.570;2023-08-20T00:57:37;100676.84;;;30.34;43.56
37832;BME280;23671;38.090;-122.570;2023-08-20T01:00:05;100683.38;;;30.33;43.40
37832;BME280;23671;38.090;-122.570;2023-08-20T01:02:37;100689.56;;;30.28;43.51
37832;BME280;23671;38.090;-122.570;2023-08-20T01:05:06;100691.47;;;30.28;43.39
37832;BME280;23671;38.090;-122.570;2023-08-20T01:08:29;100692.53;;;30.27;43.54
37832;BME280;23671;38.090;-122.570;2023-08-20T01:11:24;100696.00;;;30.22;42.84
37832;BME280;23671;38.090;-122.570;2023-08-20T01:13:55;100694.59;;;30.20;43.25
37832;BME280;23671;38.090;-122.570;2023-08-20T01:16:22;100693.22;;;30.17;42.99
37832;BME280;23671;38.090;-122.570;2023-08-20T01:18:49;100686.88;;;30.12;42.92
37832;BME280;23671;38.090;-122.570;2023-08-20T01:21:39;100679.19;;;30.09;43.04
37832;BME280;23671;38.090;-122.570;2023-08-20T01:24:23;100680.75;;;30.05;42.73
37832;BME280;23671;38.090;-122.570;2023-08-20T01:27:00;100683.97;;;30.02;42.66
37832;BME280;23671;38.090;-122.570;2023-08-20T01:29:32;100699.16;;;29.98;43.26
37832;BME280;23671;38.090;-122.570;2023-08-20T01:32:00;100700.72;;;29.94;42.68
37832;BME280;23671;38.090;-122.570;2023-08-20T01:34:28;100703.63;;;29.87;42.48
37832;BME280;23671;38.090;-122.570;2023-08-20T01:36:55;100708.72;;;29.84;42.57
37832;BME280;23671;38.090;-122.570;2023-08-20T01:39:22;100717.41;;;29.81;42.21
37832;BME280;23671;38.090;-122.570;2023-08-20T01:41:50;100717.88;;;29.78;42.48
37832;BME280;23671;38.090;-122.570;2023-08-20T01:44:17;100715.41;;;29.76;42.74
37832;BME280;23671;38.090;-122.570;2023-08-20T01:46:44;100705.72;;;29.69;42.36
37832;BME280;23671;38.090;-122.570;2023-08-20T01:49:11;100710.00;;;29.65;42.04
37832;BME280;23671;38.090;-122.570;2023-08-20T01:51:38;100697.97;;;29.60;42.17
37832;BME280;23671;38.090;-122.570;2023-08-20T01:54:05;100700.28;;;29.52;41.81
37832;BME280;23671;38.090;-122.570;2023-08-20T01:56:32;100701.59;;;29.49;41.65
37832;BME280;23671;38.090;-122.570;2023-08-20T01:59:01;100699.59;;;29.45;41.92
37832;BME280;23671;38.090;-122.570;2023-08-20T02:01:30;100694.06;;;29.40;41.57
37832;BME280;23671;38.090;-122.570;2023-08-20T02:03:57;100697.50;;;29.35;41.58
37832;BME280;23671;38.090;-122.570;2023-08-20T02:06:24;100701.56;;;29.33;40.85
37832;BME280;23671;38.090;-122.570;2023-08-20T02:08:51;100704.44;;;29.26;41.16
37832;BME280;23671;38.090;-122.570;2023-08-20T02:11:18;100699.72;;;29.22;41.17
37832;BME280;23671;38.090;-122.570;2023-08-20T02:13:45;100706.94;;;29.16;40.88
37832;BME280;23671;38.090;-122.570;2023-08-20T02:16:12;100704.59;;;29.08;40.23
37832;BME280;23671;38.090;-122.570;2023-08-20T02:18:39;100705.53;;;29.02;40.39
37832;BME280;23671;38.090;-122.570;2023-08-20T02:21:06;100698.97;;;28.98;40.46
37832;BME280;23671;38.090;-122.570;2023-08-20T02:23:33;100694.25;;;28.94;40.59
37832;BME280;23671;38.090;-122.570;2023-08-20T02:26:00;100693.31;;;28.88;40.39
37832;BME280;23671;38.090;-122.570;2023-08-20T02:28:27;100683.66;;;28.81;40.40
37832;BME280;23671;38.090;-122.570;2023-08-20T02:30:54;100687.19;;;28.81;40.74
37832;BME280;23671;38.090;-122.570;2023-08-20T02:33:23;100681.78;;;28.69;41.13
37832;BME280;23671;38.090;-122.570;2023-08-20T02:35:50;100683.81;;;28.62;40.43
37832;BME280;23671;38.090;-122.570;2023-08-20T02:38:18;100695.97;;;28.60;40.51
37832;BME280;23671;38.090;-122.570;2023-08-20T02:40:45;100697.38;;;28.51;40.57
37832;BME280;23671;38.090;-122.570;2023-08-20T02:43:12;100699.66;;;28.42;40.76
37832;BME280;23671;38.090;-122.570;2023-08-20T02:45:42;100699.53;;;28.37;40.96
37832;BME280;23671;38.090;-122.570;2023-08-20T02:48:10;100699.31;;;28.27;40.89
37832;BME280;23671;38.090;-122.570;2023-08-20T02:50:37;100700.63;;;28.25;40.93
37832;BME280;23671;38.090;-122.570;2023-08-20T02:53:05;100692.81;;;28.17;40.64
37832;BME280;23671;38.090;-122.570;2023-08-20T02:55:33;100694.00;;;28.09;40.78
37832;BME280;23671;38.090;-122.570;2023-08-20T02:58:02;100697.66;;;28.03;40.89
37832;BME280;23671;38.090;-122.570;2023-08-20T03:00:34;100704.34;;;27.89;40.85
37832;BME280;23671;38.090;-122.570;2023-08-20T03:03:01;100697.25;;;27.76;41.45
37832;BME280;23671;38.090;-122.570;2023-08-20T03:05:32;100707.53;;;27.74;41.07
37832;BME280;23671;38.090;-122.570;2023-08-20T03:08:00;100712.09;;;27.62;41.73
37832;BME280;23671;38.090;-122.570;2023-08-20T03:10:28;100713.59;;;27.58;41.76
37832;BME280;23671;38.090;-122.570;2023-08-20T03:12:55;100717.38;;;27.46;41.55
37832;BME280;23671;38.090;-122.570;2023-08-20T03:15:22;100725.59;;;27.39;41.56
37832;BME280;23671;38.090;-122.570;2023-08-20T03:17:49;100722.19;;;27.26;41.76
37832;BME280;23671;38.090;-122.570;2023-08-20T03:20:16;100721.47;;;27.19;41.87
37832;BME280;23671;38.090;-122.570;2023-08-20T03:22:44;100720.72;;;27.12;42.25
37832;BME280;23671;38.090;-122.570;2023-08-20T03:25:11;100721.88;;;27.04;41.73
37832;BME280;23671;38.090;-122.570;2023-08-20T03:27:38;100718.84;;;26.94;42.21
37832;BME280;23671;38.090;-122.570;2023-08-20T03:30:06;100721.91;;;26.86;42.40
37832;BME280;23671;38.090;-122.570;2023-08-20T03:32:33;100720.53;;;26.77;42.27
37832;BME280;23671;38.090;-122.570;2023-08-20T03:35:00;100736.88;;;26.70;42.53
37832;BME280;23671;38.090;-122.570;2023-08-20T03:37:28;100743.41;;;26.63;42.42
37832;BME280;23671;38.090;-122.570;2023-08-20T03:39:55;100755.28;;;26.62;41.84
37832;BME280;23671;38.090;-122.570;2023-08-20T03:42:22;100750.59;;;26.51;41.62
37832;BME280;23671;38.090;-122.570;2023-08-20T03:44:49;100758.34;;;26.47;41.43
37832;BME280;23671;38.090;-122.570;2023-08-20T03:47:16;100754.88;;;26.40;41.00
37832;BME280;23671;38.090;-122.570;2023-08-20T03:49:47;100762.47;;;26.32;41.17
37832;BME280;23671;38.090;-122.570;2023-08-20T03:52:17;100774.84;;;26.21;41.38
37832;BME280;23671;38.090;-122.570;2023-08-20T03:54:44;100768.19;;;26.17;41.38
37832;BME280;23671;38.090;-122.570;2023-08-20T03:57:11;100793.69;;;26.09;41.38
37832;BME280;23671;38.090;-122.570;2023-08-20T03:59:38;100808.50;;;26.00;41.50
37832;BME280;23671;38.090;-122.570;2023-08-20T04:02:05;100821.25;;;25.93;41.65
37832;BME280;23671;38.090;-122.570;2023-08-20T04:04:32;100829.63;;;25.85;41.51
37832;BME280;23671;38.090;-122.570;2023-08-20T04:06:59;100832.56;;;25.84;41.58
37832;BME280;23671;38.090;-122.570;2023-08-20T04:09:26;100849.22;;;25.81;41.64
37832;BME280;23671;38.090;-122.570;2023-08-20T04:11:53;100846.59;;;25.68;41.59
37832;BME280;23671;38.090;-122.570;2023-08-20T04:14:20;100839.34;;;25.62;41.52
37832;BME280;23671;38.090;-122.570;2023-08-20T04:16:47;100829.38;;;25.56;41.73
37832;BME280;23671;38.090;-122.570;2023-08-20T04:19:14;100814.84;;;25.50;41.76
37832;BME280;23671;38.090;-122.570;2023-08-20T04:21:41;100802.19;;;25.44;41.94
37832;BME280;23671;38.090;-122.570;2023-08-20T04:24:09;100785.78;;;25.39;41.92
37832;BME280;23671;38.090;-122.570;2023-08-20T04:26:36;100785.41;;;25.29;41.78
37832;BME280;23671;38.090;-122.570;2023-08-20T04:29:03;100779.38;;;25.20;41.85
37832;BME280;23671;38.090;-122.570;2023-08-20T04:31:30;100809.34;;;25.19;42.11
37832;BME280;23671;38.090;-122.570;2023-08-20T04:33:57;100842.44;;;25.08;42.20
37832;BME280;23671;38.090;-122.570;2023-08-20T04:36:24;100856.81;;;25.02;42.09
37832;BME280;23671;38.090;-122.570;2023-08-20T04:38:51;100870.31;;;25.02;42.32
37832;BME280;23671;38.090;-122.570;2023-08-20T04:41:18;100868.44;;;24.96;42.33
37832;BME280;23671;38.090;-122.570;2023-08-20T04:43:45;100870.75;;;24.86;42.31
37832;BME280;23671;38.090;-122.570;2023-08-20T04:46:12;100881.16;;;24.82;42.36
37832;BME280;23671;38.090;-122.570;2023-08-20T04:48:39;100889.47;;;24.74;42.54
37832;BME280;23671;38.090;-122.570;2023-08-20T04:51:07;100893.00;;;24.68;42.64
37832;BME280;23671;38.090;-122.570;2023-08-20T04:53:34;100905.44;;;24.63;42.55
37832;BME280;23671;38.090;-122.570;2023-08-20T04:56:01;100911.06;;;24.55;42.40
37832;BME280;23671;38.090;-122.570;2023-08-20T04:58:28;100917.69;;;24.52;42.56
37832;BME280;23671;38.090;-122.570;2023-08-20T05:00:55;100914.16;;;24.52;42.50
37832;BME280;23671;38.090;-122.570;2023-08-20T05:03:22;100903.56;;;24.44;42.57
37832;BME280;23671;38.090;-122.570;2023-08-20T05:05:50;100893.16;;;24.34;42.68
37832;BME280;23671;38.090;-122.570;2023-08-20T05:08:17;100884.66;;;24.30;42.78
37832;BME280;23671;38.090;-122.570;2023-08-20T05:10:44;100866.59;;;24.31;42.73
37832;BME280;23671;38.090;-122.570;2023-08-20T05:13:11;100871.78;;;24.32;42.58
37832;BME280;23671;38.090;-122.570;2023-08-20T05:15:38;100873.66;;;24.32;42.62
37832;BME280;23671;38.090;-122.570;2023-08-20T05:18:05;100877.00;;;24.27;42.68
37832;BME280;23671;38.090;-122.570;2023-08-20T05:20:32;100880.09;;;24.24;42.58
37832;BME280;23671;38.090;-122.570;2023-08-20T05:23:00;100888.16;;;24.11;42.71
37832;BME280;23671;38.090;-122.570;2023-08-20T05:25:27;100880.25;;;24.03;42.73
37832;BME280;23671;38.090;-122.570;2023-08-20T05:27:54;100883.53;;;23.99;43.04
37832;BME280;23671;38.090;-122.570;2023-08-20T05:30:21;100886.84;;;23.94;43.05
37832;BME280;23671;38.090;-122.570;2023-08-20T05:32:48;100877.28;;;23.85;43.20
37832;BME280;23671;38.090;-122.570;2023-08-20T05:35:15;100868.75;;;23.82;43.16
37832;BME280;23671;38.090;-122.570;2023-08-20T05:37:42;100859.81;;;23.75;43.19
37832;BME280;23671;38.090;-122.570;2023-08-20T05:40:09;100869.31;;;23.64;43.46
37832;BME280;23671;38.090;-122.570;2023-08-20T05:42:36;100885.06;;;23.61;43.36
37832;BME280;23671;38.090;-122.570;2023-08-20T05:45:04;100880.69;;;23.53;43.65
37832;BME280;23671;38.090;-122.570;2023-08-20T05:47:31;100899.56;;;23.53;43.54
37832;BME280;23671;38.090;-122.570;2023-08-20T05:49:58;100893.31;;;23.46;43.57
37832;BME280;23671;38.090;-122.570;2023-08-20T05:52:25;100891.00;;;23.36;43.80
37832;BME280;23671;38.090;-122.570;2023-08-20T05:54:52;100882.66;;;23.31;43.80
37832;BME280;23671;38.090;-122.570;2023-08-20T05:57:19;100898.16;;;23.29;43.93
37832;BME280;23671;38.090;-122.570;2023-08-20T05:59:46;100900.00;;;23.22;44.02
37832;BME280;23671;38.090;-122.570;2023-08-20T06:02:16;100907.44;;;23.20;44.00
37832;BME280;23671;38.090;-122.570;2023-08-20T06:04:45;100903.69;;;23.15;44.06
37832;BME280;23671;38.090;-122.570;2023-08-20T06:07:12;100896.41;;;23.09;44.12
37832;BME280;23671;38.090;-122.570;2023-08-20T06:09:39;100906.31;;;23.08;44.02
37832;BME280;23671;38.090;-122.570;2023-08-20T06:12:06;100909.63;;;23.04;44.17
37832;BME280;23671;38.090;-122.570;2023-08-20T06:14:33;100913.56;;;23.01;44.06
37832;BME280;23671;38.090;-122.570;2023-08-20T06:17:00;100909.78;;;22.96;44.14
37832;BME280;23671;38.090;-122.570;2023-08-20T06:19:27;100910.78;;;22.95;44.31
37832;BME280;23671;38.090;-122.570;2023-08-20T06:21:55;100907.88;;;22.90;44.26
37832;BME280;23671;38.090;-122.570;2023-08-20T06:24:22;100904.16;;;22.91;44.25
37832;BME280;23671;38.090;-122.570;2023-08-20T06:26:49;100895.38;;;22.82;44.27
37832;BME280;23671;38.090;-122.570;2023-08-20T06:29:16;100899.72;;;22.77;44.30
37832;BME280;23671;38.090;-122.570;2023-08-20T06:31:43;100898.03;;;22.76;44.35
37832;BME280;23671;38.090;-122.570;2023-08-20T06:34:10;100898.63;;;22.71;44.53
37832;BME280;23671;38.090;-122.570;2023-08-20T06:36:37;100891.75;;;22.69;44.66
37832;BME280;23671;38.090;-122.570;2023-08-20T06:39:04;100897.72;;;22.64;44.86
37832;BME280;23671;38.090;-122.570;2023-08-20T06:41:31;100906.41;;;22.60;44.76
37832;BME280;23671;38.090;-122.570;2023-08-20T06:43:59;100928.88;;;22.52;44.91
37832;BME280;23671;38.090;-122.570;2023-08-20T06:46:26;100948.94;;;22.49;45.02
37832;BME280;23671;38.090;-122.570;2023-08-20T06:48:53;100963.78;;;22.45;45.04
37832;BME280;23671;38.090;-122.570;2023-08-20T06:51:21;100959.81;;;22.41;45.08
37832;BME280;23671;38.090;-122.570;2023-08-20T06:53:48;100949.25;;;22.40;45.07
37832;BME280;23671;38.090;-122.570;2023-08-20T06:56:16;100951.31;;;22.38;45.15
37832;BME280;23671;38.090;-122.570;2023-08-20T06:58:43;100948.16;;;22.34;45.05
37832;BME280;23671;38.090;-122.570;2023-08-20T07:01:10;100947.53;;;22.32;45.08
37832;BME280;23671;38.090;-122.570;2023-08-20T07:03:40;100966.06;;;22.27;45.30
37832;BME280;23671;38.090;-122.570;2023-08-20T07:06:08;100958.84;;;22.28;45.19
37832;BME280;23671;38.090;-122.570;2023-08-20T07:08:41;100948.84;;;22.22;45.42
37832;BME280;23671;38.090;-122.570;2023-08-20T07:11:08;100961.66;;;22.20;45.39
37832;BME280;23671;38.090;-122.570;2023-08-20T07:13:36;100962.25;;;22.15;45.42
37832;BME280;23671;38.090;-122.570;2023-08-20T07:16:03;100959.72;;;22.14;45.47
37832;BME280;23671;38.090;-122.570;2023-08-20T07:18:30;100953.88;;;22.10;45.54
37832;BME280;23671;38.090;-122.570;2023-08-20T07:20:57;100950.94;;;22.05;45.46
37832;BME280;23671;38.090;-122.570;2023-08-20T07:23:24;100965.41;;;22.04;45.43
37832;BME280;23671;38.090;-122.570;2023-08-20T07:25:52;100967.66;;;22.01;45.63
37832;BME280;23671;38.090;-122.570;2023-08-20T07:28:30;100974.06;;;22.00;45.63
37832;BME280;23671;38.090;-122.570;2023-08-20T07:31:15;100966.81;;;22.00;45.68
37832;BME280;23671;38.090;-122.570;2023-08-20T07:33:46;100964.06;;;21.94;45.53
37832;BME280;23671;38.090;-122.570;2023-08-20T07:36:17;100966.94;;;21.92;45.66
37832;BME280;23671;38.090;-122.570;2023-08-20T07:38:45;100980.38;;;21.92;45.64
37832;BME280;23671;38.090;-122.570;2023-08-20T07:41:12;100976.41;;;21.88;45.74
37832;BME280;23671;38.090;-122.570;2023-08-20T07:43:40;100974.53;;;21.89;45.68
37832;BME280;23671;38.090;-122.570;2023-08-20T07:46:08;100970.56;;;21.85;45.68
37832;BME280;23671;38.090;-122.570;2023-08-20T07:48:36;100962.66;;;21.83;45.68
37832;BME280;23671;38.090;-122.570;2023-08-20T07:51:03;100963.06;;;21.80;45.90
37832;BME280;23671;38.090;-122.570;2023-08-20T07:53:31;100953.66;;;21.76;45.63
37832;BME280;23671;38.090;-122.570;2023-08-20T07:56:00;100946.81;;;21.73;45.79
37832;BME280;23671;38.090;-122.570;2023-08-20T07:58:27;100932.34;;;21.75;45.76
37832;BME280;23671;38.090;-122.570;2023-08-20T08:00:55;100922.16;;;21.70;45.80
37832;BME280;23671;38.090;-122.570;2023-08-20T08:03:24;100916.78;;;21.70;45.80
37832;BME280;23671;38.090;-122.570;2023-08-20T08:05:51;100910.56;;;21.69;45.83
37832;BME280;23671;38.090;-122.570;2023-08-20T08:08:19;100902.69;;;21.68;45.92
37832;BME280;23671;38.090;-122.570;2023-08-20T08:10:47;100894.38;;;21.63;45.92
37832;BME280;23671;38.090;-122.570;2023-08-20T08:13:18;100903.28;;;21.63;46.00
37832;BME280;23671;38.090;-122.570;2023-08-20T08:15:46;100896.41;;;21.61;45.88
37832;BME280;23671;38.090;-122.570;2023-08-20T08:18:13;100889.56;;;21.58;46.05
37832;BME280;23671;38.090;-122.570;2023-08-20T08:20:40;100897.81;;;21.57;45.84
37832;BME280;23671;38.090;-122.570;2023-08-20T08:23:07;100896.31;;;21.54;45.85
37832;BME280;23671;38.090;-122.570;2023-08-20T08:25:34;100897.16;;;21.55;46.03
37832;BME280;23671;38.090;-122.570;2023-08-20T08:28:02;100889.09;;;21.55;46.08
37832;BME280;23671;38.090;-122.570;2023-08-20T08:30:29;100866.69;;;21.48;46.11
37832;BME280;23671;38.090;-122.570;2023-08-20T08:32:56;100873.38;;;21.52;46.02
37832;BME280;23671;38.090;-122.570;2023-08-20T08:35:23;100864.81;;;21.48;45.93
37832;BME280;23671;38.090;-122.570;2023-08-20T08:37:50;100857.81;;;21.47;46.04
37832;BME280;23671;38.090;-122.570;2023-08-20T08:40:17;100839.53;;;21.43;45.93
37832;BME280;23671;38.090;-122.570;2023-08-20T08:42:48;100842.25;;;21.43;45.98
37832;BME280;23671;38.090;-122.570;2023-08-20T08:45:20;100839.94;;;21.40;46.11
37832;BME280;23671;38.090;-122.570;2023-08-20T08:47:48;100844.66;;;21.38;46.07
37832;BME280;23671;38.090;-122.570;2023-08-20T08:50:16;100842.97;;;21.37;45.92
37832;BME280;23671;38.090;-122.570;2023-08-20T08:52:45;100840.50;;;21.35;45.96
37832;BME280;23671;38.090;-122.570;2023-08-20T08:55:14;100843.38;;;21.34;46.10
37832;BME280;23671;38.090;-122.570;2023-08-20T08:57:41;100841.44;;;21.28;46.09
37832;BME280;23671;38.090;-122.570;2023-08-20T09:00:08;100838.75;;;21.28;46.15
37832;BME280;23671;38.090;-122.570;2023-08-20T09:02:36;100835.41;;;21.26;46.24
37832;BME280;23671;38.090;-122.570;2023-08-20T09:05:04;100829.41;;;21.24;46.19
37832;BME280;23671;38.090;-122.570;2023-08-20T09:07:31;100831.06;;;21.25;46.28
37832;BME280;23671;38.090;-122.570;2023-08-20T09:09:59;100828.94;;;21.20;46.34
37832;BME280;23671;38.090;-122.570;2023-08-20T09:12:27;100821.72;;;21.21;46.23
37832;BME280;23671;38.090;-122.570;2023-08-20T09:14:54;100809.50;;;21.18;46.34
37832;BME280;23671;38.090;-122.570;2023-08-20T09:17:26;100809.69;;;21.17;46.15
37832;BME280;23671;38.090;-122.570;2023-08-20T09:19:55;100813.22;;;21.17;46.15
37832;BME280;23671;38.090;-122.570;2023-08-20T09:22:26;100801.00;;;21.15;46.24
37832;BME280;23671;38.090;-122.570;2023-08-20T09:24:55;100798.66;;;21.12;46.30
37832;BME280;23671;38.090;-122.570;2023-08-20T09:27:23;100802.38;;;21.11;46.30
37832;BME280;23671;38.090;-122.570;2023-08-20T09:29:55;100794.69;;;21.08;46.47
37832;BME280;23671;38.090;-122.570;2023-08-20T09:32:28;100804.63;;;21.07;46.31
37832;BME280;23671;38.090;-122.570;2023-08-20T09:34:56;100807.28;;;21.07;46.42
37832;BME280;23671;38.090;-122.570;2023-08-20T09:37:24;100819.22;;;21.05;46.39
37832;BME280;23671;38.090;-122.570;2023-08-20T09:39:52;100826.00;;;21.01;46.48
37832;BME280;23671;38.090;-122.570;2023-08-20T09:42:19;100835.84;;;21.00;46.46
37832;BME280;23671;38.090;-122.570;2023-08-20T09:44:47;100833.38;;;20.99;46.42
37832;BME280;23671;38.090;-122.570;2023-08-20T09:47:16;100840.56;;;20.98;46.48
37832;BME280;23671;38.090;-122.570;2023-08-20T09:49:45;100824.84;;;20.95;46.55
37832;BME280;23671;38.090;-122.570;2023-08-20T09:53:19;100841.81;;;20.96;46.59
37832;BME280;23671;38.090;-122.570;2023-08-20T09:55:22;100827.91;;;20.92;46.57
37832;BME280;23671;38.090;-122.570;2023-08-20T09:57:49;100820.59;;;20.86;46.60
37832;BME280;23671;38.090;-122.570;2023-08-20T10:00:17;100823.09;;;20.88;46.62
37832;BME280;23671;38.090;-122.570;2023-08-20T10:02:44;100818.09;;;20.84;46.63
37832;BME280;23671;38.090;-122.570;2023-08-20T10:05:12;100819.13;;;20.83;46.57
37832;BME280;23671;38.090;-122.570;2023-08-20T10:07:40;100815.78;;;20.81;46.67
37832;BME280;23671;38.090;-122.570;2023-08-20T10:10:09;100812.44;;;20.79;46.83
37832;BME280;23671;38.090;-122.570;2023-08-20T10:12:40;100826.06;;;20.78;46.86
37832;BME280;23671;38.090;-122.570;2023-08-20T10:15:08;100834.31;;;20.76;46.61
37832;BME280;23671;38.090;-122.570;2023-08-20T10:17:39;100828.09;;;20.76;46.82
37832;BME280;23671;38.090;-122.570;2023-08-20T10:20:07;100834.84;;;20.72;46.65
37832;BME280;23671;38.090;-122.570;2023-08-20T10:22:42;100832.34;;;20.70;46.78
37832;BME280;23671;38.090;-122.570;2023-08-20T10:25:29;100834.19;;;20.70;46.96
37832;BME280;23671;38.090;-122.570;2023-08-20T10:28:13;100825.28;;;20.69;46.95
37832;BME280;23671;38.090;-122.570;2023-08-20T10:31:08;100821.97;;;20.67;46.94
37832;BME280;23671;38.090;-122.570;2023-08-20T10:36:20;100808.94;;;20.64;46.98
37832;BME280;23671;38.090;-122.570;2023-08-20T10:38:55;100811.81;;;20.63;47.07
37832;BME280;23671;38.090;-122.570;2023-08-20T10:41:27;100811.34;;;20.59;46.99
37832;BME280;23671;38.090;-122.570;2023-08-20T10:43:58;100806.50;;;20.55;47.08
37832;BME280;23671;38.090;-122.570;2023-08-20T10:46:29;100809.00;;;20.56;47.10
37832;BME280;23671;38.090;-122.570;2023-08-20T10:49:03;100812.72;;;20.55;47.12
37832;BME280;23671;38.090;-122.570;2023-08-20T10:51:34;100805.88;;;20.53;47.14
37832;BME280;23671;38.090;-122.570;2023-08-20T10:59:26;100828.72;;;20.49;47.06
37832;BME280;23671;38.090;-122.570;2023-08-20T11:01:56;100835.91;;;20.48;47.10
37832;BME280;23671;38.090;-122.570;2023-08-20T11:04:30;100830.72;;;20.47;47.17
37832;BME280;23671;38.090;-122.570;2023-08-20T11:07:01;100821.19;;;20.44;47.10
37832;BME280;23671;38.090;-122.570;2023-08-20T11:09:29;100816.00;;;20.43;47.20
37832;BME280;23671;38.090;-122.570;2023-08-20T11:11:57;100821.56;;;20.41;47.28
37832;BME280;23671;38.090;-122.570;2023-08-20T11:14:25;100822.56;;;20.40;47.22
37832;BME280;23671;38.090;-122.570;2023-08-20T11:16:52;100818.88;;;20.41;47.24
37832;BME280;23671;38.090;-122.570;2023-08-20T11:19:21;100812.41;;;20.36;47.38
37832;BME280;23671;38.090;-122.570;2023-08-20T11:21:49;100810.53;;;20.36;47.18
37832;BME280;23671;38.090;-122.570;2023-08-20T11:24:17;100806.19;;;20.35;47.24
37832;BME280;23671;38.090;-122.570;2023-08-20T11:26:46;100813.22;;;20.36;47.06
37832;BME280;23671;38.090;-122.570;2023-08-20T11:29:15;100810.91;;;20.33;47.40
37832;BME280;23671;38.090;-122.570;2023-08-20T11:31:47;100798.69;;;20.31;47.25
37832;BME280;23671;38.090;-122.570;2023-08-20T11:34:15;100811.28;;;20.30;47.44
37832;BME280;23671;38.090;-122.570;2023-08-20T11:36:42;100823.19;;;20.28;47.52
37832;BME280;23671;38.090;-122.570;2023-08-20T11:39:10;100831.44;;;20.26;47.37
37832;BME280;23671;38.090;-122.570;2023-08-20T11:41:38;100830.41;;;20.27;47.24
37832;BME280;23671;38.090;-122.570;2023-08-20T11:44:08;100809.34;;;20.24;47.53
37832;BME280;23671;38.090;-122.570;2023-08-20T11:46:43;100807.47;;;20.25;47.40
37832;BME280;23671;38.090;-122.570;2023-08-20T11:49:11;100801.28;;;20.24;47.53
37832;BME280;23671;38.090;-122.570;2023-08-20T11:51:40;100794.44;;;20.22;47.34
37832;BME280;23671;38.090;-122.570;2023-08-20T11:54:07;100797.94;;;20.22;47.58
37832;BME280;23671;38.090;-122.570;2023-08-20T11:56:35;100795.63;;;20.19;47.47
37832;BME280;23671;38.090;-122.570;2023-08-20T11:59:03;100809.38;;;20.16;47.50
37832;BME280;23671;38.090;-122.570;2023-08-20T12:01:31;100799.47;;;20.17;47.58
37832;BME280;23671;38.090;-122.570;2023-08-20T12:04:04;100807.19;;;20.20;47.69
37832;BME280;23671;38.090;-122.570;2023-08-20T12:06:32;100808.53;;;20.16;47.51
37832;BME280;23671;38.090;-122.570;2023-08-20T12:09:00;100801.50;;;20.15;47.52
37832;BME280;23671;38.090;-122.570;2023-08-20T12:11:29;100803.34;;;20.14;47.58
37832;BME280;23671;38.090;-122.570;2023-08-20T12:13:56;100792.16;;;20.11;47.81
37832;BME280;23671;38.090;-122.570;2023-08-20T12:16:24;100803.72;;;20.11;47.52
37832;BME280;23671;38.090;-122.570;2023-08-20T12:18:52;100813.41;;;20.12;47.64
37832;BME280;23671;38.090;-122.570;2023-08-20T12:21:19;100808.78;;;20.06;47.58
37832;BME280;23671;38.090;-122.570;2023-08-20T12:23:46;100798.72;;;20.08;47.61
37832;BME280;23671;38.090;-122.570;2023-08-20T12:26:13;100806.09;;;20.06;47.79
37832;BME280;23671;38.090;-122.570;2023-08-20T12:28:40;100804.78;;;20.02;47.82
37832;BME280;23671;38.090;-122.570;2023-08-20T12:31:08;100810.81;;;20.04;47.80
37832;BME280;23671;38.090;-122.570;2023-08-20T12:33:35;100811.66;;;20.05;47.72
37832;BME280;23671;38.090;-122.570;2023-08-20T12:36:02;100818.00;;;20.04;47.83